• Join FlightAware (Why Join?)
  • Login
  • US Flag 
10:12PM EST


 

Airport Tracker/Info


-or-


 

Live Flight TrackerFlight Track Log ✈ N314AD ✈ 11-Apr-2012 ✈ KOAK - KTEB

Flight Track Log - Related Links

Times and Time Zones

All times are in EDT time to prevent confusion due to time zone crossing. See the N314AD flight status page for this flight to view local times or setup timezone preferences in your user account.

Time Position Orientation Groundspeed Altitude Reporting Facility
EDT Latitude Longitude Course Direction KTS MPH feet Rate Location/Type
06:15PM 37.7749 -122.0369 301° West  Level Estimated
06:16PM 37.8177 -121.8896 280° West  Level Estimated
06:17PM 37.8667 -122.2333 79° East 316 364 11,400  Level Northern Cal TRACON
06:18PM 37.8889 -122.0894 77° East 372 428 15,000 2,820 Climbing Oakland Center
06:19PM 37.9111 -121.9633 77° East 372 428 17,800 1,980 Climbing Oakland Center
06:20PM 37.9350 -121.8292 79° East 377 434 19,000 1,560 Climbing Oakland Center
06:21PM 37.9569 -121.6819 76° East 397 457 21,000 2,040 Climbing Oakland Center
06:22PM 37.9847 -121.5375 76° East 414 476 23,100 2,040 Climbing Oakland Center
06:23PM 38.0125 -121.3925 77° East 419 482 25,100 1,800 Climbing Oakland Center
06:24PM 38.0400 -121.2425 76° East 424 488 26,800 1,500 Climbing Oakland Center
06:25PM 38.0694 -121.0897 77° East 434 499 28,200 1,440 Climbing Oakland Center
06:26PM 38.0986 -120.9261 77° East 451 519 29,700 1,440 Climbing Oakland Center
06:27PM 38.1278 -120.7622 76° East 461 531 31,200 1,140 Climbing Oakland Center
06:28PM 38.1606 -120.5958 77° East 472 543 32,000 720 Climbing Oakland Center
06:29PM 38.1911 -120.4211 77° East 483 556 32,700 1,140 Climbing Oakland Center
06:30PM 38.2217 -120.2544 77° East 488 562 34,300 1,140 Climbing Oakland Center
06:31PM 38.2517 -120.0903 77° East 488 562 35,000 300 Climbing Oakland Center
06:32PM 38.2817 -119.9178 77° East 488 562 35,000  Level Oakland Center
06:33PM 38.3114 -119.7506 79° East 488 562 35,000  Level Oakland Center
06:34PM 38.3386 -119.5781 79° East 488 562 35,000 600 Level Oakland Center
06:35PM 38.3636 -119.4133 78° East 482 555 36,200 960 Climbing Oakland Center
06:36PM 38.3906 -119.2539 78° East 471 542 37,000 360 Climbing Oakland Center
06:37PM 38.4194 -119.0861 79° East 465 535 37,000 540 Level Oakland Center
06:38PM 38.4436 -118.9239 78° East 471 542 38,100 960 Climbing Oakland Center
06:39PM 38.4700 -118.7692 79° East 461 531 39,000 420 Climbing Oakland Center
06:40PM 38.4942 -118.6092 77° East 456 525 39,000  Level Oakland Center
06:41PM 38.5219 -118.4492 79° East 451 519 39,000  Level Oakland Center
06:42PM 38.5456 -118.2889 78° East 451 519 39,000  Level Oakland Center
06:43PM 38.5731 -118.1258 78° East 451 519 39,000  Level Oakland Center
06:44PM 38.6003 -117.9628 79° East 451 519 39,000  Level Oakland Center
06:45PM 38.6253 -117.7967 79° East 456 525 39,000  Level Oakland Center
06:47PM 38.6539 -117.6025 80° East 468 539 39,000  Level Salt Lake Center
06:48PM 38.6772 -117.4372 79° East 468 539 39,000  Level Salt Lake Center
06:49PM 38.7025 -117.2697 79° East 473 544 39,000  Level Salt Lake Center
06:50PM 38.7267 -117.1028 80° East 474 545 39,000  Level Salt Lake Center
06:51PM 38.7550 -116.9019 79° East 474 545 39,000  Level Salt Lake Center
06:52PM 38.7794 -116.7342 79° East 477 549 39,000  Level Salt Lake Center
06:53PM 38.8036 -116.5669 80° East 476 548 39,000  Level Salt Lake Center
06:54PM 38.8256 -116.4008 80° East 473 544 39,000  Level Salt Lake Center
06:55PM 38.8492 -116.2347 80° East 473 544 39,000  Level Salt Lake Center
06:56PM 38.8717 -116.0689 80° East 471 542 39,000  Level Salt Lake Center
06:57PM 38.8942 -115.9039 80° East 469 540 39,000  Level Salt Lake Center
06:58PM 38.9164 -115.7400 80° East 468 539 39,000  Level Salt Lake Center
06:59PM 38.9422 -115.5425 80° East 467 537 39,000  Level Salt Lake Center
07:00PM 38.9642 -115.3756 80° East 466 536 39,000  Level Salt Lake Center
07:01PM 38.9864 -115.2186 81° East 468 539 39,000  Level Salt Lake Center
07:02PM 39.0078 -115.0500 81° East 469 540 39,000  Level Salt Lake Center
07:03PM 39.0289 -114.8836 81° East 467 537 39,000  Level Salt Lake Center
07:04PM 39.0492 -114.7178 81° East 464 534 39,000  Level Salt Lake Center
07:05PM 39.0703 -114.5517 81° East 463 533 39,000  Level Salt Lake Center
07:06PM 39.0911 -114.3847 81° East 465 535 39,000  Level Salt Lake Center
07:07PM 39.1106 -114.2172 81° East 465 535 39,000  Level Salt Lake Center
07:08PM 39.1314 -114.0506 81° East 465 535 39,000  Level Salt Lake Center
07:09PM 39.1508 -113.8864 82° East 460 529 39,000  Level Salt Lake Center
07:10PM 39.1697 -113.7211 82° East 459 528 39,000  Level Salt Lake Center
07:11PM 39.1917 -113.5233 82° East 458 527 39,000  Level Salt Lake Center
07:12PM 39.2103 -113.3581 81° East 458 527 39,000  Level Salt Lake Center
07:13PM 39.2294 -113.1919 82° East 460 529 39,000  Level Salt Lake Center
07:14PM 39.2469 -113.0250 82° East 461 531 39,000  Level Salt Lake Center
07:15PM 39.2653 -112.8575 82° East 463 533 39,000  Level Salt Lake Center
07:16PM 39.2839 -112.6897 82° East 464 534 39,000  Level Salt Lake Center
07:17PM 39.3008 -112.5339 74° East 460 529 39,000  Level Salt Lake Center
07:18PM 39.3372 -112.3694 73° East 476 548 39,000  Level Salt Lake Center
07:21PM 39.4222 -112.0128 73° East 476 548 39,000  Level Salt Lake Center
07:22PM 39.4619 -111.8464 73° East 479 551 39,000  Level Salt Lake Center
07:23PM 39.5017 -111.6786 73° East 483 556 39,000  Level Salt Lake Center
07:24PM 39.5403 -111.5125 73° East 481 554 39,000  Level Salt Lake Center
07:25PM 39.5786 -111.3456 74° East 480 552 39,000  Level Salt Lake Center
07:26PM 39.6192 -111.1664 73° East 479 551 39,000  Level Salt Lake Center
07:27PM 39.6558 -111.0086 73° East 478 550 39,000  Level Salt Lake Center
07:28PM 39.6981 -110.8236 74° East 478 550 39,000  Level Salt Lake Center
07:29PM 39.7331 -110.6650 74° East 478 550 39,000  Level Salt Lake Center
07:30PM 39.7739 -110.4822 74° East 474 545 39,000  Level Salt Lake Center
07:31PM 39.8078 -110.3253 74° East 472 543 39,000  Level Salt Lake Center
07:32PM 39.8486 -110.1414 74° East 474 545 39,000  Level Salt Lake Center
07:33PM 39.8828 -109.9864 74° East 469 540 39,000  Level Salt Lake Center
07:34PM 39.9156 -109.8322 74° East 464 534 39,000  Level Salt Lake Center
07:35PM 39.9544 -109.6508 75° East 464 534 39,000  Level Salt Lake Center
07:36PM 39.9875 -109.4939 74° East 466 536 39,000  Level Salt Lake Center
07:37PM 40.0272 -109.3092 75° East 470 541 39,000  Level Salt Lake Center
07:38PM 40.0606 -109.1497 75° East 472 543 39,000  Level Salt Lake Center
07:39PM 40.0989 -108.9614 75° East 476 548 39,000  Level Salt Lake Center
07:40PM 40.1328 -108.7989 75° East 480 552 39,000  Level Salt Lake Center
07:41PM 40.1658 -108.6342 75° East 483 556 39,000  Level Salt Lake Center
07:42PM 40.2050 -108.4431 75° East 485 558 39,000  Level Salt Lake Center
07:43PM 40.2314 -108.3119 68° East 472 543 39,000  Level Denver Center
07:44PM 40.2819 -108.1500 60° Northeast 472 543 39,000  Level Denver Center
07:45PM 40.3550 -107.9831 57° Northeast 472 543 39,000  Level Denver Center
07:46PM 40.4300 -107.8292 58° Northeast 485 558 39,000  Level Denver Center
07:47PM 40.4942 -107.6939 58° Northeast 490 564 39,000  Level Denver Center
07:48PM 40.5686 -107.5367 59° Northeast 490 564 39,000  Level Denver Center
07:49PM 40.6472 -107.3656 69° East 490 564 39,100 420 Climbing Denver Center
07:50PM 40.6858 -107.2292 63° Northeast 485 558 39,900 780 Climbing Denver Center
07:51PM 40.7556 -107.0464 70° East 474 545 40,700 540 Climbing Denver Center
07:52PM 40.7981 -106.8875 66° East 481 554 41,000 120 Climbing Denver Center
07:53PM 40.8589 -106.7039 67° East 494 568 41,000  Level Denver Center
07:54PM 40.9133 -106.5339 66° East 499 574 41,000  Level Denver Center
07:55PM 40.9656 -106.3800 71° East 504 580 41,000  Level Denver Center
07:56PM 41.0153 -106.1844 70° East 504 580 41,000  Level Denver Center
07:57PM 41.0647 -106.0081 70° East 504 580 41,000  Level Denver Center
07:58PM 41.1139 -105.8311 70° East 504 580 41,000  Level Denver Center
07:59PM 41.1608 -105.6569 70° East 506 582 41,000  Level Denver Center
08:00PM 41.2053 -105.4936 70° East 511 588 41,000  Level Denver Center
08:01PM 41.2578 -105.2994 71° East 511 588 41,000  Level Denver Center
08:02PM 41.3039 -105.1217 70° East 511 588 41,000  Level Denver Center
08:03PM 41.3478 -104.9606 70° East 505 581 41,000  Level Denver Center
08:04PM 41.3953 -104.7850 75° East 505 581 41,000  Level Denver Center
08:05PM 41.4358 -104.5817 80° East 505 581 41,000  Level Denver Center
08:06PM 41.4581 -104.4039 79° East 498 573 41,000  Level Denver Center
08:07PM 41.4819 -104.2394 80° East 498 573 41,000  Level Denver Center
08:08PM 41.5092 -104.0361 80° East 498 573 41,000  Level Denver Center
08:09PM 41.5344 -103.8522 80° East 498 573 41,000  Level Denver Center
08:10PM 41.5572 -103.6708 79° East 498 573 41,000  Level Denver Center
08:11PM 41.5822 -103.5031 80° East 504 580 41,000  Level Denver Center
08:12PM 41.6103 -103.2992 81° East 504 580 41,000  Level Denver Center
08:13PM 41.6322 -103.1203 80° East 504 580 41,000  Level Denver Center
08:14PM 41.6544 -102.9494 80° East 504 580 41,000  Level Denver Center
08:15PM 41.6778 -102.7675 79° East 504 580 41,000  Level Denver Center
08:16PM 41.7064 -102.5600 81° East 511 588 41,000  Level Denver Center
08:17PM 41.7272 -102.3778 81° East 504 580 41,000  Level Denver Center
08:18PM 41.7497 -102.1900 80° East 504 580 41,000  Level Denver Center
08:19PM 41.7706 -102.0242 80° East 504 580 41,000  Level Denver Center
08:20PM 41.7978 -101.8161 81° East 509 586 41,000  Level Denver Center
08:21PM 41.8194 -101.6278 82° East 509 586 41,000  Level Denver Center
08:22PM 41.8403 -101.4367 81° East 509 586 41,000  Level Denver Center
08:23PM 41.8600 -101.2678 82° East 509 586 41,000  Level Denver Center
08:24PM 41.8819 -101.0622 81° East 509 586 41,000  Level Denver Center
08:25PM 41.9025 -100.8792 82° East 503 579 41,000  Level Denver Center
08:26PM 41.9222 -100.6875 80° East 510 587 41,000  Level Denver Center
08:27PM 41.9431 -100.5208 83° East 503 579 41,000  Level Denver Center
08:28PM 41.9603 -100.3322 82° East 504 580 41,000  Level Denver Center
08:29PM 41.9808 -100.1317 81° East 504 580 41,000  Level Denver Center
08:30PM 42.0017 -99.9450 81° East 499 574 41,000  Level Denver Center
08:31PM 42.0197 -99.7839 82° East 494 568 41,000  Level Denver Center
08:33PM 42.0603 -99.3614 82° East 515 593 41,000  Level Minneapolis Center
08:34PM 42.0781 -99.1814 82° East 501 577 41,000  Level Minneapolis Center
08:35PM 42.0958 -99.0014 83° East 496 571 41,000  Level Minneapolis Center
08:36PM 42.1131 -98.8211 84° East 496 571 41,000  Level Minneapolis Center
08:37PM 42.1283 -98.6319 84° East 496 571 41,000  Level Minneapolis Center
08:38PM 42.1428 -98.4542 83° East 491 565 41,000  Level Minneapolis Center
08:39PM 42.1594 -98.2681 83° East 491 565 41,000  Level Minneapolis Center
08:40PM 42.1758 -98.0844 83° East 496 571 41,000  Level Minneapolis Center
08:41PM 42.1919 -97.8981 85° East 496 571 41,000  Level Minneapolis Center
08:42PM 42.2033 -97.7111 84° East 496 571 41,000  Level Minneapolis Center
08:43PM 42.2189 -97.5217 85° East 496 571 41,000  Level Minneapolis Center
08:44PM 42.2319 -97.3350 83° East 496 571 41,000  Level Minneapolis Center
08:45PM 42.2486 -97.1511 84° East 496 571 41,000  Level Minneapolis Center
08:46PM 42.2633 -96.9614 85° East 502 578 41,000  Level Minneapolis Center
08:47PM 42.2756 -96.7714 83° East 502 578 41,000  Level Minneapolis Center
08:48PM 42.2914 -96.5817 84° East 502 578 41,000  Level Minneapolis Center
08:49PM 42.3053 -96.3858 85° East 507 583 41,000  Level Minneapolis Center
08:50PM 42.3164 -96.1986 85° East 507 583 41,000  Level Minneapolis Center
08:51PM 42.3292 -96.0111 84° East 513 590 41,000  Level Minneapolis Center
08:52PM 42.3439 -95.8208 85° East 513 590 41,000  Level Minneapolis Center
08:53PM 42.3561 -95.6306 86° East 508 585 41,000  Level Minneapolis Center
08:54PM 42.3661 -95.4400 85° East 508 585 41,000  Level Minneapolis Center
08:55PM 42.3778 -95.2467 86° East 508 585 41,000  Level Minneapolis Center
08:56PM 42.3869 -95.0561 85° East 508 585 41,000  Level Minneapolis Center
08:57PM 42.4000 -94.8656 86° East 508 585 41,000  Level Minneapolis Center
08:58PM 42.4106 -94.6719 86° East 514 592 41,000  Level Minneapolis Center
08:59PM 42.4208 -94.4811 87° East 514 592 41,000  Level Minneapolis Center
09:00PM 42.4289 -94.2872 88° East 514 592 41,000  Level Minneapolis Center
09:03PM 42.4392 -93.8689 85° East 507 583 41,000  Level Chicago Center
09:04PM 42.4506 -93.6756 86° East 512 589 41,000  Level Chicago Center
09:05PM 42.4597 -93.4875 86° East 512 589 41,000  Level Chicago Center
09:06PM 42.4686 -93.2939 87° East 512 589 41,000  Level Chicago Center
09:07PM 42.4767 -93.1114 87° East 505 581 41,000  Level Chicago Center
09:08PM 42.4847 -92.9286 88° East 493 567 41,000  Level Chicago Center
09:09PM 42.4908 -92.7261 86° East 488 562 41,000  Level Chicago Center
09:10PM 42.5000 -92.5464 87° East 488 562 41,000  Level Chicago Center
09:11PM 42.5072 -92.3608 87° East 482 555 41,000  Level Chicago Center
09:12PM 42.5136 -92.1836 88° East 476 548 41,000  Level Chicago Center
09:13PM 42.5181 -92.0036 87° East 476 548 41,000  Level Chicago Center
09:14PM 42.5242 -91.8236 88° East 476 548 41,000  Level Chicago Center
09:15PM 42.5278 -91.6433 87° East 476 548 41,000  Level Chicago Center
09:16PM 42.5331 -91.4772 88° East 476 548 41,000  Level Chicago Center
09:17PM 42.5383 -91.2942 88° East 476 548 41,000  Level Chicago Center
09:18PM 42.5433 -91.1139 88° East 476 548 41,000  Level Chicago Center
09:19PM 42.5481 -90.9308 88° East 481 554 41,000  Level Chicago Center
09:20PM 42.5525 -90.7450 88° East 481 554 41,000  Level Chicago Center
09:21PM 42.5567 -90.5647 89° East 476 548 41,000  Level Chicago Center
09:22PM 42.5583 -90.3844 88° East 476 548 41,000  Level Chicago Center
09:23PM 42.5642 -90.1983 89° East 481 554 41,000  Level Chicago Center
09:24PM 42.5653 -90.0208 90° East 475 547 41,000  Level Chicago Center
09:25PM 42.5642 -89.8233 89° East 475 547 41,000  Level Chicago Center
09:26PM 42.5669 -89.6431 90° East 475 547 41,000  Level Chicago Center
09:27PM 42.5672 -89.4656 89° East 475 547 41,000  Level Chicago Center
09:28PM 42.5692 -89.2878 90° East 475 547 41,000  Level Chicago Center
09:29PM 42.5692 -89.1075 89° East 475 547 41,000  Level Chicago Center
09:30PM 42.5706 -88.9269 90° East 475 547 41,000  Level Chicago Center
09:31PM 42.5697 -88.7467 89° East 481 554 41,000  Level Chicago Center
09:32PM 42.5708 -88.5633 91° East 476 548 41,000  Level Chicago Center
09:33PM 42.5694 -88.3800 90° East 476 548 41,000  Level Chicago Center
09:34PM 42.5697 -88.2025 90° East 476 548 41,000  Level Chicago Center
09:35PM 42.5700 -88.0247 91° East 468 539 41,000  Level Chicago Center
09:36PM 42.5678 -87.8444 88° East 476 548 41,000  Level Chicago Center
09:37PM 42.5717 -87.6694 90° East 471 542 41,000  Level Chicago Center
09:38PM 42.5711 -87.4919 91° East 471 542 41,000  Level Chicago Center
09:40PM 42.5667 -87.1283 91° East 476 548 41,000  Level Chicago Center
09:41PM 42.5650 -86.9508 91° East 481 554 41,000  Level Chicago Center
09:42PM 42.5633 -86.7731 93° East 476 548 41,000  Level Chicago Center
09:43PM 42.5575 -86.6128 92° East 476 548 41,000  Level Chicago Center
09:44PM 42.5533 -86.4353 92° East 476 548 41,000  Level Chicago Center
09:45PM 42.5486 -86.2550 90° East 476 548 41,000  Level Chicago Center
09:46PM 42.5478 -86.0803 92° East 476 548 41,000  Level Chicago Center
09:47PM 42.5425 -85.9003 91° East 476 548 41,000  Level Chicago Center
09:48PM 42.5394 -85.7258 92° East 471 542 41,000  Level Chicago Center
09:50PM 42.5275 -85.3681 92° East 458 527 41,000  Level Cleveland Center
09:51PM 42.5222 -85.1900 92° East 469 540 41,000  Level Cleveland Center
09:52PM 42.5167 -85.0119 93° East 469 540 41,000  Level Cleveland Center
09:53PM 42.5108 -84.8369 91° East 469 540 41,000  Level Cleveland Center
09:54PM 42.5075 -84.6422 92° East 464 534 41,000  Level Cleveland Center
09:55PM 42.5044 -84.4900 94° East 458 527 41,000  Level Cleveland Center
09:56PM 42.4956 -84.3119 93° East 468 539 41,000  Level Cleveland Center
09:57PM 42.4886 -84.1369 93° East 468 539 41,000  Level Cleveland Center
09:58PM 42.4814 -83.9647 92° East 462 532 41,000  Level Cleveland Center
09:59PM 42.4758 -83.7925 94° East 462 532 41,000  Level Cleveland Center
10:00PM 42.4664 -83.6006 92° East 462 532 41,000  Level Cleveland Center
10:01PM 42.4625 -83.4258 95° East 462 532 41,000  Level Cleveland Center
10:02PM 42.4519 -83.2567 93° East 462 532 41,000  Level Cleveland Center
10:03PM 42.4456 -83.0847 94° East 462 532 41,000  Level Cleveland Center
10:04PM 42.4367 -82.9128 94° East 462 532 41,000  Level Cleveland Center
10:05PM 42.4292 -82.7575 94° East 462 532 41,000  Level Cleveland Center
10:06PM 42.4197 -82.5914 93° East 462 532 41,000  Level Cleveland Center
10:07PM 42.4122 -82.4194 95° East 457 526 41,000  Level Cleveland Center
10:08PM 42.4022 -82.2506 95° East 462 532 41,000  Level Cleveland Center
10:09PM 42.3919 -82.0817 94° East 462 532 41,000  Level Cleveland Center
10:10PM 42.3839 -81.9072 95° East 462 532 41,000  Level Cleveland Center
10:11PM 42.3731 -81.7356 95° East 462 532 41,000  Level Cleveland Center
10:12PM 42.3622 -81.5525 94° East 462 532 41,000  Level Cleveland Center
10:13PM 42.3533 -81.3839 95° East 462 532 41,000  Level Cleveland Center
10:14PM 42.3417 -81.2153 95° East 457 526 41,000  Level Cleveland Center
10:15PM 42.3300 -81.0436 94° East 457 526 41,000  Level Cleveland Center
10:16PM 42.3203 -80.8753 95° East 457 526 41,000  Level Cleveland Center
10:17PM 42.3081 -80.7011 97° East 457 526 41,000  Level Cleveland Center
10:18PM 42.2933 -80.5325 94° East 464 534 41,000  Level Cleveland Center
10:19PM 42.2850 -80.3783 96° East 453 521 41,000  Level Cleveland Center
10:20PM 42.2719 -80.2128 95° East 453 521 41,000  Level Cleveland Center
10:21PM 42.2608 -80.0389 95° East 459 528 41,000  Level Cleveland Center
10:22PM 42.2475 -79.8539 96° East 459 528 41,000  Level Cleveland Center
10:23PM 42.2336 -79.6803 96° East 459 528 41,000  Level Cleveland Center
10:24PM 42.2197 -79.5122 95° East 459 528 41,000  Level Cleveland Center
10:25PM 42.2075 -79.3414 96° East 459 528 41,000  Level Cleveland Center
10:26PM 42.1931 -79.1678 104° East 459 528 41,000  Level Cleveland Center
10:27PM 42.1617 -78.9978 109° East 464 534 41,000 -360 Level Cleveland Center
10:28PM 42.1175 -78.8281 109° East 464 534 40,300 -900 Descending Cleveland Center
10:29PM 42.0731 -78.6558 110° East 478 550 39,300 -1,020 Descending Cleveland Center
10:30PM 42.0261 -78.4783 109° East 490 564 38,300 -1,020 Descending Cleveland Center
10:31PM 41.9811 -78.3039 108° East 490 564 37,300 -1,020 Descending Cleveland Center
10:32PM 41.9381 -78.1294 109° East 490 564 36,300 -720 Descending Cleveland Center
10:34PM 41.8406 -77.7619 109° East 494 568 35,000 -420 Descending New York Center
10:35PM 41.7964 -77.5903 110° East 494 568 35,000  Level New York Center
10:36PM 41.7517 -77.4244 110° East 483 556 35,000 -660 Level New York Center
10:37PM 41.7050 -77.2503 111° Southeast 483 556 33,700 -1,380 Descending New York Center
10:38PM 41.6561 -77.0761 109° East 489 563 32,300 -1,440 Descending New York Center
10:39PM 41.6075 -76.8883 110° East 489 563 30,900 -1,440 Descending New York Center
10:40PM 41.5619 -76.7206 110° East 484 557 29,500 -1,440 Descending New York Center
10:41PM 41.5158 -76.5558 111° Southeast 478 550 28,000 -1,560 Descending New York Center
10:42PM 41.4714 -76.3997 111° Southeast 468 539 26,400 -1,740 Descending New York Center
10:43PM 41.4283 -76.2522 109° East 445 512 24,600 -1,620 Descending New York Center
10:44PM 41.3964 -76.1278 110° East 422 486 23,200 -1,560 Descending New York Center
10:45PM 41.3589 -75.9894 112° Southeast 402 463 21,600 -1,740 Descending New York Center
10:46PM 41.3153 -75.8425 110° East 391 450 19,800 -1,620 Descending New York Center
10:47PM 41.2811 -75.7156 114° Southeast 391 450 18,400 -1,740 Descending New York Center
10:48PM 41.2383 -75.5856 113° Southeast 391 450 16,400 -1,980 Descending New York Center
10:49PM 41.1958 -75.4556 114° Southeast 386 444 14,500 -1,980 Descending New York Center
10:50PM 41.1528 -75.3286 114° Southeast 370 426 12,500 -1,800 Descending New York Center
10:51PM 41.1153 -75.2189 113° Southeast 338 389 10,900 -1,560 Descending New York Center
10:52PM 41.0817 -75.1147 115° Southeast 312 359 9,400 -1,500 Descending New York Center
10:53PM 41.0494 -75.0247 115° Southeast 302 348 8,000 -1,500 Descending New York Center
10:54PM 41.0136 -74.9233 121° Southeast 296 341 6,500 -1,080 Descending New York Center
10:55PM 40.9731 -74.8331 122° Southeast 290 334 5,900 -840 Descending New York Center
10:56PM 40.9322 -74.7453 121° Southeast 285 328 4,900 -960 Descending New York Center
10:57PM 40.8933 -74.6608 120° Southeast 280 322 4,000 -900 Descending New York Center
10:58PM 40.8667 -74.6000 128° Southeast 266 306 3,400 -600 Descending New York TRACON
10:59PM 40.8167 -74.5167 118° Southeast 270 311 3,000 -240 Descending New York TRACON
11:00PM 40.7833 -74.4333 118° Southeast 270 311 3,000 -300 Level New York TRACON
11:01PM 40.7500 -74.3500 102° East 257 296 2,400 -480 Descending New York TRACON
11:02PM 40.7333 -74.2500 66° East 210 242 2,000 -180 Descending New York TRACON
11:03PM 40.7500 -74.2000 37° Northeast 178 205 2,100 -240 Climbing New York TRACON
11:04PM 40.7833 -74.1667 49° Northeast 165 190 1,600 -540 Descending New York TRACON
11:05PM 40.8167 -74.1167 57° Northeast 133 153 1,100 -600 Descending New York TRACON
11:06PM 40.8333 -74.0833 57° Northeast 118 136 500 -600 Descending New York TRACON